Time;durP1;ratioP1;P1;durP2;ratioP2;P2;SDS_P1;SDS_P2;PMS_P1;PMS_P2;Temp;Humidity;BMP_temperature;BMP_pressure;BME280_temperature;BME280_humidity;BME280_pressure;Samples;Min_cycle;Max_cycle;Signal;HPM_P1;HPM_P2
2023/01/12 00:02:03;;;;;;;;;;;;;;;6.96;87.54;100573.95;105120;1288;61310;-79
2023/01/12 00:04:32;;;;;;;;;;;;;;;6.96;87.55;100580.45;105023;1288;61292;-79
2023/01/12 00:06:58;;;;;;;;;;;;;;;6.97;87.56;100585.43;105080;1289;73548;-79
2023/01/12 00:09:23;;;;;;;;;;;;;;;6.97;87.63;100591.42;105035;1288;59337;-79
2023/01/12 00:11:49;;;;;;;;;;;;;;;6.97;87.60;100595.20;105050;1288;61215;-79
2023/01/12 00:14:14;;;;;;;;;;;;;;;6.97;87.58;100601.37;104990;1288;61392;-80
2023/01/12 00:16:40;;;;;;;;;;;;;;;6.97;87.64;100603.77;105047;1288;61330;-79
2023/01/12 00:19:16;;;;;;;;;;;;;;;6.97;87.58;100601.88;106261;1288;59383;-79
2023/01/12 00:21:55;;;;;;;;;;;;;;;6.97;87.63;100599.48;106479;1288;59894;-79
2023/01/12 00:24:24;;;;;;;;;;;;;;;6.96;87.54;100600.52;106333;1288;75128;-80
2023/01/12 00:26:50;;;;;;;;;;;;;;;6.94;87.53;100599.14;106423;1287;67981;-80
2023/01/12 00:29:16;;;;;;;;;;;;;;;6.93;87.53;100598.11;106302;1288;59606;-80
2023/01/12 00:31:41;;;;;;;;;;;;;;;6.92;87.53;100599.15;105874;1288;59334;-80
2023/01/12 00:34:07;;;;;;;;;;;;;;;6.91;87.47;100600.52;105185;1288;61227;-80
2023/01/12 00:36:32;;;;;;;;;;;;;;;6.89;87.53;100607.38;105154;1287;61298;-79
2023/01/12 00:38:58;;;;;;;;;;;;;;;6.87;87.50;100612.34;105178;1288;61352;-79
2023/01/12 00:46:52;;;;;;;;;;;;;;;6.80;87.42;100618.01;105063;1288;73321;-79
2023/01/12 00:49:17;;;;;;;;;;;;;;;6.76;87.46;100615.96;105109;1288;61375;-79
2023/01/12 00:51:43;;;;;;;;;;;;;;;6.72;87.51;100615.98;105090;1288;61295;-79
2023/01/12 00:54:08;;;;;;;;;;;;;;;6.69;87.48;100623.00;106368;1287;59411;-79
2023/01/12 00:56:35;;;;;;;;;;;;;;;6.67;87.53;100623.01;106263;1288;59081;-79
2023/01/12 00:59:00;;;;;;;;;;;;;;;6.65;87.50;100621.29;106335;1288;69401;-80
2023/01/12 01:01:26;;;;;;;;;;;;;;;6.64;87.47;100619.92;106388;1287;59238;-80
2023/01/12 01:03:51;;;;;;;;;;;;;;;6.63;87.58;100619.58;106262;1289;59273;-80
2023/01/12 01:06:17;;;;;;;;;;;;;;;6.64;87.55;100611.36;106396;1288;58946;-79
2023/01/12 01:08:42;;;;;;;;;;;;;;;6.65;87.54;100608.44;105371;1292;59751;-79
2023/01/12 01:11:09;;;;;;;;;;;;;;;6.65;87.60;100604.34;105124;1288;72199;-79
2023/01/12 01:13:36;;;;;;;;;;;;;;;6.65;87.69;100600.56;105160;1288;61230;-79
2023/01/12 01:16:03;;;;;;;;;;;;;;;6.65;87.62;100608.61;105159;1292;61374;-80
2023/01/12 01:18:30;;;;;;;;;;;;;;;6.64;87.64;100616.49;104938;1288;73298;-81
2023/01/12 01:20:56;;;;;;;;;;;;;;;6.65;87.60;100617.70;105126;1288;67964;-81
2023/01/12 01:23:22;;;;;;;;;;;;;;;6.66;87.66;100612.39;104965;1287;61232;-81
2023/01/12 01:25:48;;;;;;;;;;;;;;;6.64;87.67;100617.02;105123;1288;61222;-81
2023/01/12 01:28:14;;;;;;;;;;;;;;;6.63;87.72;100622.14;105027;1288;61245;-81
2023/01/12 01:30:39;;;;;;;;;;;;;;;6.60;87.63;100626.42;105244;1288;61093;-81
2023/01/12 01:33:05;;;;;;;;;;;;;;;6.56;87.69;100628.82;105168;1288;61272;-81
2023/01/12 01:35:30;;;;;;;;;;;;;;;6.52;87.61;100630.36;105311;1288;61425;-81
2023/01/12 01:37:56;;;;;;;;;;;;;;;6.48;87.50;100636.17;105223;1288;59331;-81
2023/01/12 01:40:22;;;;;;;;;;;;;;;6.44;87.52;100634.64;105312;1287;61369;-81
2023/01/12 01:42:47;;;;;;;;;;;;;;;6.40;87.57;100629.31;105220;1288;61319;-81
2023/01/12 01:45:15;;;;;;;;;;;;;;;6.36;87.58;100629.99;105323;1288;61248;-81
2023/01/12 01:47:49;;;;;;;;;;;;;;;6.33;87.57;100630.16;105233;1288;60958;-81
2023/01/12 01:50:21;;;;;;;;;;;;;;;6.28;87.58;100629.48;105324;1292;61066;-82
2023/01/12 01:52:51;;;;;;;;;;;;;;;6.24;87.57;100632.04;105242;1288;74132;-82
2023/01/12 01:55:22;;;;;;;;;;;;;;;6.22;87.60;100636.52;105257;1287;68537;-81
2023/01/12 01:57:51;;;;;;;;;;;;;;;6.19;87.62;100636.52;105709;1287;72588;-81
2023/01/12 02:00:17;;;;;;;;;;;;;;;6.17;87.63;100637.86;105254;1288;61238;-81
2023/01/12 02:02:45;;;;;;;;;;;;;;;6.16;87.69;100639.58;105168;1288;59965;-81
2023/01/12 02:05:12;;;;;;;;;;;;;;;6.14;87.63;100639.39;105214;1289;75434;-80
2023/01/12 02:07:38;;;;;;;;;;;;;;;6.11;87.59;100643.15;105299;1288;68425;-80
2023/01/12 02:10:03;;;;;;;;;;;;;;;6.07;87.56;100640.23;105334;1288;60881;-80
2023/01/12 02:18:11;;;;;;;;;;;;;;;6.00;87.71;100641.23;105155;1287;74485;-79
2023/01/12 02:20:47;;;;;;;;;;;;;;;5.99;87.67;100639.70;105181;1287;67930;-79
2023/01/12 02:23:42;;;;;;;;;;;;;;;5.98;87.75;100631.48;105035;1288;73397;-79
2023/01/12 02:26:13;;;;;;;;;;;;;;;5.97;87.74;100633.71;104563;1294;61241;-79
2023/01/12 02:28:39;;;;;;;;;;;;;;;5.96;87.68;100635.58;104593;1293;59906;-79
2023/01/12 02:31:10;;;;;;;;;;;;;;;5.94;87.70;100631.98;104631;1294;61300;-79
2023/01/12 02:34:14;;;;;;;;;;;;;;;5.92;87.75;100630.27;104620;1293;67295;-79
2023/01/12 02:36:43;;;;;;;;;;;;;;;5.90;87.76;100630.43;104046;1300;73455;-79
2023/01/12 02:39:19;;;;;;;;;;;;;;;5.88;87.72;100626.81;104124;1300;61412;-79
2023/01/12 02:44:42;;;;;;;;;;;;;;;5.82;87.69;100625.58;104046;1301;73153;-79
2023/01/12 02:47:14;;;;;;;;;;;;;;;5.79;87.67;100625.21;103803;1300;259615;-79
2023/01/12 02:49:41;;;;;;;;;;;;;;;5.75;87.70;100620.92;104109;1300;72356;-79
2023/01/12 02:52:11;;;;;;;;;;;;;;;5.72;87.66;100620.92;104100;1302;61211;-79
2023/01/12 02:54:38;;;;;;;;;;;;;;;5.70;87.71;100623.85;104143;1300;61437;-79
2023/01/12 02:57:06;;;;;;;;;;;;;;;5.68;87.77;100625.90;104129;1302;74532;-81
2023/01/12 02:59:36;;;;;;;;;;;;;;;5.68;87.81;100631.37;104332;1303;69388;-81
2023/01/12 03:02:09;;;;;;;;;;;;;;;5.67;87.80;100631.54;104276;1302;72629;-81
2023/01/12 03:04:35;;;;;;;;;;;;;;;5.65;87.82;100629.64;104560;1296;59319;-80
2023/01/12 03:07:00;;;;;;;;;;;;;;;5.65;87.86;100625.71;104641;1288;61286;-80
2023/01/12 03:09:30;;;;;;;;;;;;;;;5.65;87.87;100623.66;105268;1288;59343;-81
2023/01/12 03:12:05;;;;;;;;;;;;;;;5.67;87.87;100622.98;105308;1291;68540;-82
2023/01/12 03:14:32;;;;;;;;;;;;;;;5.67;87.80;100613.75;105327;1288;71339;-81
2023/01/12 03:16:59;;;;;;;;;;;;;;;5.67;87.80;100618.54;105215;1288;61262;-81
2023/01/12 03:19:29;;;;;;;;;;;;;;;5.67;87.78;100618.70;105195;1288;61366;-81
2023/01/12 03:21:56;;;;;;;;;;;;;;;5.67;87.82;100616.31;105286;1288;74539;-81
2023/01/12 03:24:24;;;;;;;;;;;;;;;5.66;87.80;100612.71;105228;1288;68519;-81
2023/01/12 03:26:52;;;;;;;;;;;;;;;5.65;87.83;100618.02;105194;1291;73496;-81
2023/01/12 03:29:24;;;;;;;;;;;;;;;5.64;87.80;100611.52;105282;1287;61160;-81
2023/01/12 03:31:50;;;;;;;;;;;;;;;5.61;87.68;100601.24;105295;1287;59854;-81
2023/01/12 03:34:16;;;;;;;;;;;;;;;5.58;87.74;100599.52;105202;1288;61356;-81
2023/01/12 03:36:51;;;;;;;;;;;;;;;5.56;87.77;100604.47;105296;1288;62506;-81
2023/01/12 03:39:35;;;;;;;;;;;;;;;5.53;87.79;100607.87;105276;1292;72520;-81
2023/01/12 03:42:21;;;;;;;;;;;;;;;5.50;87.66;100606.31;105280;1288;61353;-81
2023/01/12 03:44:53;;;;;;;;;;;;;;;5.45;87.65;100609.55;104772;1294;61273;-81
2023/01/12 03:47:23;;;;;;;;;;;;;;;5.41;87.69;100612.94;104854;1294;73919;-81
2023/01/12 03:50:09;;;;;;;;;;;;;;;5.38;87.72;100611.05;104788;1294;68718;-81
2023/01/12 03:52:36;;;;;;;;;;;;;;;5.36;87.73;100603.52;104336;1299;72364;-81
2023/01/12 03:55:02;;;;;;;;;;;;;;;5.32;87.73;100602.48;104417;1300;61316;-81
2023/01/12 03:57:29;;;;;;;;;;;;;;;5.30;87.81;100602.80;104279;1303;62130;-81
2023/01/12 03:59:55;;;;;;;;;;;;;;;5.27;87.80;100601.59;104262;1300;61371;-80
2023/01/12 04:02:21;;;;;;;;;;;;;;;5.24;87.76;100609.27;104172;1300;61153;-79
2023/01/12 04:04:46;;;;;;;;;;;;;;;5.21;87.76;100615.05;104183;1300;61281;-79
2023/01/12 04:07:30;;;;;;;;;;;;;;;5.20;87.79;100613.36;104204;1299;61167;-80
2023/01/12 04:09:57;;;;;;;;;;;;;;;5.19;87.81;100611.31;104088;1302;59355;-81
2023/01/12 04:12:22;;;;;;;;;;;;;;;5.16;87.74;100608.90;104141;1300;61300;-81
2023/01/12 04:14:48;;;;;;;;;;;;;;;5.14;87.83;100607.19;103999;1299;61374;-81
2023/01/12 04:17:15;;;;;;;;;;;;;;;5.12;87.77;100609.91;105434;1300;59262;-81
2023/01/12 04:19:41;;;;;;;;;;;;;;;5.09;87.73;100614.16;105317;1300;59119;-81
2023/01/12 04:24:51;;;;;;;;;;;;;;;5.05;87.75;100611.05;104612;1297;75661;-81
2023/01/12 04:27:17;;;;;;;;;;;;;;;5.03;87.79;100613.61;104657;1294;61389;-81
2023/01/12 04:29:42;;;;;;;;;;;;;;;5.01;87.75;100613.08;104772;1287;61314;-81
2023/01/12 04:32:08;;;;;;;;;;;;;;;4.99;87.75;100612.39;105296;1288;61343;-81
2023/01/12 04:34:34;;;;;;;;;;;;;;;4.96;87.72;100609.13;105326;1288;61283;-81
2023/01/12 04:37:00;;;;;;;;;;;;;;;4.93;87.77;100605.34;105163;1288;69361;-81
2023/01/12 04:39:26;;;;;;;;;;;;;;;4.92;87.73;100607.72;105171;1288;62074;-81
2023/01/12 04:41:51;;;;;;;;;;;;;;;4.90;87.77;100604.98;105398;1288;59432;-81
2023/01/12 04:44:16;;;;;;;;;;;;;;;4.87;87.75;100600.52;105389;1288;61540;-81
2023/01/12 04:46:42;;;;;;;;;;;;;;;4.85;87.70;100603.74;105342;1288;61271;-81
2023/01/12 04:49:07;;;;;;;;;;;;;;;4.82;87.75;100600.64;105333;1291;60151;-81
2023/01/12 04:51:33;;;;;;;;;;;;;;;4.81;87.71;100596.88;105373;1288;61240;-79
2023/01/12 04:53:59;;;;;;;;;;;;;;;4.78;87.78;100589.52;105069;1288;61233;-79
2023/01/12 04:56:24;;;;;;;;;;;;;;;4.76;87.74;100591.38;105107;1288;63841;-79
2023/01/12 04:58:54;;;;;;;;;;;;;;;4.75;87.84;100594.45;105127;1294;59385;-79
2023/01/12 05:01:21;;;;;;;;;;;;;;;4.74;87.84;100598.20;105165;1288;72890;-79
2023/01/12 05:03:46;;;;;;;;;;;;;;;4.73;87.81;100601.43;106374;1287;59052;-79
2023/01/12 05:06:12;;;;;;;;;;;;;;;4.71;87.76;100603.64;106294;1288;59134;-79
2023/01/12 05:11:27;;;;;;;;;;;;;;;4.70;87.80;100602.44;105080;1287;67403;-79
2023/01/12 05:13:54;;;;;;;;;;;;;;;4.70;87.85;100599.19;106275;1288;72509;-79
2023/01/12 05:16:19;;;;;;;;;;;;;;;4.70;87.83;100598.85;106302;1287;58721;-79
2023/01/12 05:18:45;;;;;;;;;;;;;;;4.70;87.84;100597.14;106219;1287;59094;-79
2023/01/12 05:21:11;;;;;;;;;;;;;;;4.70;87.79;100595.95;106324;1288;59701;-79
2023/01/12 05:23:37;;;;;;;;;;;;;;;4.70;87.77;100592.19;106320;1288;59457;-79
2023/01/12 05:26:03;;;;;;;;;;;;;;;4.70;87.77;100596.63;106291;1288;59049;-79
2023/01/12 05:28:30;;;;;;;;;;;;;;;4.71;87.77;100590.14;105061;1288;61278;-79
2023/01/12 05:31:01;;;;;;;;;;;;;;;4.70;87.86;100593.21;105024;1289;59928;-79
2023/01/12 05:33:26;;;;;;;;;;;;;;;4.71;87.91;100591.68;105056;1289;75274;-79
2023/01/12 05:35:51;;;;;;;;;;;;;;;4.71;87.86;100592.19;105100;1291;59436;-79
2023/01/12 05:38:17;;;;;;;;;;;;;;;4.71;87.86;100588.11;105058;1288;61236;-80
2023/01/12 05:40:42;;;;;;;;;;;;;;;4.72;87.94;100587.77;105355;1287;61230;-81
2023/01/12 05:45:55;;;;;;;;;;;;;;;4.71;87.88;100583.83;105307;1289;67555;-81
2023/01/12 05:48:20;;;;;;;;;;;;;;;4.70;87.90;100581.61;105345;1288;59348;-81
2023/01/12 05:50:46;;;;;;;;;;;;;;;4.69;87.92;100577.84;105228;1288;61324;-81
2023/01/12 05:53:11;;;;;;;;;;;;;;;4.69;87.83;100578.52;105237;1288;61230;-81
2023/01/12 05:55:37;;;;;;;;;;;;;;;4.69;87.86;100577.66;105394;1289;58660;-79
2023/01/12 05:58:03;;;;;;;;;;;;;;;4.69;87.85;100581.60;105084;1289;61270;-80
2023/01/12 06:00:29;;;;;;;;;;;;;;;4.68;87.83;100576.48;105260;1287;61237;-81
2023/01/12 06:02:54;;;;;;;;;;;;;;;4.68;87.91;100575.47;105265;1288;61241;-81
2023/01/12 06:05:20;;;;;;;;;;;;;;;4.68;87.88;100572.21;105350;1290;59414;-81
2023/01/12 06:07:45;;;;;;;;;;;;;;;4.68;87.90;100568.95;105234;1288;63627;-81
2023/01/12 06:10:11;;;;;;;;;;;;;;;4.69;87.92;100567.42;105305;1293;61242;-81
2023/01/12 06:15:21;;;;;;;;;;;;;;;4.69;87.91;100563.84;105329;1288;73488;-79
2023/01/12 06:17:46;;;;;;;;;;;;;;;4.70;87.92;100563.33;105094;1288;61909;-79
2023/01/12 06:20:15;;;;;;;;;;;;;;;4.70;87.95;100560.27;105119;1288;61523;-79
2023/01/12 06:22:41;;;;;;;;;;;;;;;4.69;87.94;100563.50;105143;1288;59672;-79
2023/01/12 06:25:07;;;;;;;;;;;;;;;4.70;87.89;100565.89;106166;1288;59395;-79
2023/01/12 06:27:34;;;;;;;;;;;;;;;4.71;87.88;100564.88;106287;1288;59085;-80
2023/01/12 06:30:00;;;;;;;;;;;;;;;4.72;87.91;100562.15;105435;1288;60055;-79
2023/01/12 06:32:26;;;;;;;;;;;;;;;4.72;87.83;100562.33;106160;1288;59265;-80
2023/01/12 06:34:52;;;;;;;;;;;;;;;4.72;87.84;100564.04;106253;1289;58385;-80
2023/01/12 06:37:18;;;;;;;;;;;;;;;4.73;87.88;100561.48;106212;1293;59043;-79
2023/01/12 06:39:43;;;;;;;;;;;;;;;4.73;87.83;100554.98;105717;1288;59680;-80
2023/01/12 06:42:27;;;;;;;;;;;;;;;4.73;87.87;100559.60;105144;1288;61234;-79
2023/01/12 06:44:57;;;;;;;;;;;;;;;4.75;87.94;100558.25;105157;1288;61391;-79
2023/01/12 06:47:23;;;;;;;;;;;;;;;4.77;87.91;100553.30;105062;1288;60017;-79
2023/01/12 06:49:51;;;;;;;;;;;;;;;4.78;87.93;100550.75;105070;1288;61258;-79
2023/01/12 06:52:18;;;;;;;;;;;;;;;4.80;87.97;100558.10;105154;1291;69757;-78
2023/01/12 06:54:43;;;;;;;;;;;;;;;4.82;87.96;100553.16;105079;1288;59528;-79
2023/01/12 06:57:09;;;;;;;;;;;;;;;4.85;88.03;100554.38;105151;1291;59518;-79
2023/01/12 06:59:34;;;;;;;;;;;;;;;4.86;87.98;100553.88;105015;1288;61402;-79
2023/01/12 07:01:59;;;;;;;;;;;;;;;4.89;88.00;100554.92;105072;1292;61336;-79
2023/01/12 07:04:25;;;;;;;;;;;;;;;4.92;87.97;100555.29;105150;1289;61333;-79
2023/01/12 07:06:54;;;;;;;;;;;;;;;4.94;87.96;100554.62;105061;1294;61287;-79
2023/01/12 07:09:20;;;;;;;;;;;;;;;4.98;87.90;100559.92;105026;1289;61088;-77
2023/01/12 07:11:45;;;;;;;;;;;;;;;5.00;87.95;100558.40;106121;1290;59615;-75
2023/01/12 07:14:11;;;;;;;;;;;;;;;5.04;87.97;100559.29;106312;1288;59050;-78
2023/01/12 07:16:39;;;;;;;;;;;;;;;5.08;87.94;100560.33;106230;1288;59017;-79
2023/01/12 07:19:04;;;;;;;;;;;;;;;5.12;87.90;100564.45;106183;1288;59387;-79
2023/01/12 07:21:30;;;;;;;;;;;;;;;5.15;87.85;100559.69;106178;1289;59528;-80
2023/01/12 07:23:57;;;;;;;;;;;;;;;5.19;87.78;100550.98;106184;1288;59253;-80
2023/01/12 07:26:24;;;;;;;;;;;;;;;5.23;87.80;100549.27;105372;1288;59402;-79
2023/01/12 07:28:51;;;;;;;;;;;;;;;5.25;87.81;100548.94;105017;1288;61267;-79
2023/01/12 07:31:17;;;;;;;;;;;;;;;5.27;87.76;100552.88;105045;1289;61191;-79
2023/01/12 07:33:43;;;;;;;;;;;;;;;5.28;87.78;100551.86;105071;1288;61128;-78
2023/01/12 07:36:09;;;;;;;;;;;;;;;5.30;87.76;100555.29;105142;1288;60538;-81
2023/01/12 07:38:34;;;;;;;;;;;;;;;5.30;87.74;100557.52;105080;1288;61244;-78
2023/01/12 07:41:00;;;;;;;;;;;;;;;5.30;87.78;100561.27;105070;1287;61395;-78
2023/01/12 07:43:26;;;;;;;;;;;;;;;5.30;87.74;100562.64;104941;1289;61179;-79
2023/01/12 07:45:54;;;;;;;;;;;;;;;5.33;87.73;100561.63;105184;1288;61953;-79
2023/01/12 07:48:21;;;;;;;;;;;;;;;5.34;87.78;100557.87;105035;1288;69720;-78
2023/01/12 07:50:47;;;;;;;;;;;;;;;5.34;87.72;100552.40;106168;1288;71811;-78
2023/01/12 07:53:14;;;;;;;;;;;;;;;5.32;87.71;100550.52;106185;1292;59229;-78
2023/01/12 07:55:42;;;;;;;;;;;;;;;5.33;87.60;100548.64;106250;1287;58952;-79
2023/01/12 07:58:08;;;;;;;;;;;;;;;5.33;87.58;100548.98;106122;1289;73505;-79
2023/01/12 08:00:34;;;;;;;;;;;;;;;5.33;87.62;100543.16;106129;1288;59125;-78
2023/01/12 08:03:07;;;;;;;;;;;;;;;5.34;87.62;100544.03;106197;1288;58422;-79
2023/01/12 08:05:33;;;;;;;;;;;;;;;5.36;87.62;100542.31;106172;1288;59339;-80
2023/01/12 08:07:58;;;;;;;;;;;;;;;5.35;87.59;100542.15;106144;1288;59735;-78
2023/01/12 08:10:24;;;;;;;;;;;;;;;5.36;87.60;100541.30;106187;1292;59303;-82
2023/01/12 08:12:50;;;;;;;;;;;;;;;5.37;87.61;100540.27;106148;1288;59466;-82
2023/01/12 08:15:15;;;;;;;;;;;;;;;5.36;87.61;100544.38;106208;1288;60160;-82
2023/01/12 08:18:02;;;;;;;;;;;;;;;5.37;87.61;100548.66;106262;1288;59080;-82
2023/01/12 08:20:31;;;;;;;;;;;;;;;5.40;87.68;100543.88;106183;1288;74151;-82
2023/01/12 08:22:59;;;;;;;;;;;;;;;5.42;87.63;100543.71;106223;1289;68473;-82
2023/01/12 08:25:29;;;;;;;;;;;;;;;5.45;87.67;100545.09;106165;1288;72467;-82
2023/01/12 08:27:59;;;;;;;;;;;;;;;5.50;87.72;100545.80;106146;1288;59399;-82
2023/01/12 08:30:25;;;;;;;;;;;;;;;5.55;87.71;100538.29;106170;1289;59883;-79
2023/01/12 08:32:50;;;;;;;;;;;;;;;5.57;87.70;100540.70;106204;1288;59051;-83
2023/01/12 08:35:19;;;;;;;;;;;;;;;5.59;87.66;100541.73;106215;1287;59006;-78
2023/01/12 08:37:44;;;;;;;;;;;;;;;5.60;87.65;100540.36;105946;1288;72654;-77
2023/01/12 08:40:10;;;;;;;;;;;;;;;5.63;87.66;100544.64;106213;1288;60034;-78
2023/01/12 08:42:36;;;;;;;;;;;;;;;5.63;87.68;100537.81;106063;1291;59542;-78
2023/01/12 08:45:01;;;;;;;;;;;;;;;5.65;87.67;100537.47;106137;1291;59191;-78
2023/01/12 08:47:29;;;;;;;;;;;;;;;5.67;87.65;100533.54;106001;1288;59203;-78
2023/01/12 08:49:55;;;;;;;;;;;;;;;5.69;87.66;100533.55;106061;1288;59085;-78
2023/01/12 08:52:21;;;;;;;;;;;;;;;5.73;87.73;100530.29;106068;1288;58796;-78
2023/01/12 08:54:46;;;;;;;;;;;;;;;5.75;87.63;100529.08;106009;1288;59565;-78
2023/01/12 08:57:12;;;;;;;;;;;;;;;5.76;87.67;100528.41;106160;1291;59420;-78
2023/01/12 08:59:38;;;;;;;;;;;;;;;5.78;87.65;100530.12;106059;1289;72429;-78
2023/01/12 09:02:03;;;;;;;;;;;;;;;5.82;87.72;100530.64;106005;1292;59358;-78
2023/01/12 09:04:29;;;;;;;;;;;;;;;5.86;87.70;100524.84;105946;1292;59026;-80
2023/01/12 09:06:54;;;;;;;;;;;;;;;5.91;87.70;100524.02;106112;1290;59147;-75
2023/01/12 09:09:21;;;;;;;;;;;;;;;5.94;87.62;100526.77;106147;1289;59189;-76
2023/01/12 09:11:47;;;;;;;;;;;;;;;6.00;87.66;100529.85;106136;1290;59388;-76
2023/01/12 09:14:13;;;;;;;;;;;;;;;6.04;87.61;100526.27;106173;1287;58899;-76
2023/01/12 09:16:39;;;;;;;;;;;;;;;6.08;87.56;100520.79;105984;1290;59005;-75
2023/01/12 09:19:04;;;;;;;;;;;;;;;6.11;87.62;100518.23;105958;1292;59104;-76
2023/01/12 09:21:30;;;;;;;;;;;;;;;6.15;87.63;100516.34;106044;1288;59629;-76
2023/01/12 09:23:56;;;;;;;;;;;;;;;6.19;87.60;100513.95;106081;1294;58892;-76
2023/01/12 09:26:23;;;;;;;;;;;;;;;6.22;87.69;100506.08;106063;1294;59120;-77
2023/01/12 09:28:50;;;;;;;;;;;;;;;6.27;87.62;100505.02;106111;1291;69316;-76
2023/01/12 09:31:17;;;;;;;;;;;;;;;6.33;87.68;100501.25;106054;1289;71593;-77
2023/01/12 09:33:43;;;;;;;;;;;;;;;6.41;87.71;100501.77;106119;1289;59159;-77
2023/01/12 09:36:10;;;;;;;;;;;;;;;6.52;87.77;100504.48;106128;1295;59187;-76
2023/01/12 09:38:36;;;;;;;;;;;;;;;6.61;87.74;100500.55;105984;1293;74228;-75
2023/01/12 09:41:08;;;;;;;;;;;;;;;6.72;87.74;100498.30;106027;1292;59131;-76
2023/01/12 09:49:23;;;;;;;;;;;;;;;7.03;87.73;100492.19;106127;1289;59865;-76
2023/01/12 09:51:53;;;;;;;;;;;;;;;7.09;87.63;100486.85;106128;1289;73939;-76
2023/01/12 09:54:18;;;;;;;;;;;;;;;7.12;87.41;100489.75;106139;1289;68334;-76
2023/01/12 09:56:51;;;;;;;;;;;;;;;7.16;87.45;100489.91;106110;1290;59038;-76
2023/01/12 09:59:16;;;;;;;;;;;;;;;7.20;87.48;100490.23;106191;1288;59022;-76
2023/01/12 10:01:43;;;;;;;;;;;;;;;7.23;87.34;100486.45;106173;1291;59266;-75
2023/01/12 10:04:08;;;;;;;;;;;;;;;7.26;87.53;100487.80;106005;1289;59750;-76
2023/01/12 10:06:34;;;;;;;;;;;;;;;7.32;87.60;100485.17;106129;1292;59250;-76
2023/01/12 10:09:01;;;;;;;;;;;;;;;7.36;87.44;100480.02;106089;1290;59148;-76
2023/01/12 10:11:56;;;;;;;;;;;;;;;7.38;87.44;100471.27;106005;1288;59378;-75
2023/01/12 10:14:25;;;;;;;;;;;;;;;7.42;87.54;100469.35;105690;1294;59289;-80
2023/01/12 10:17:00;;;;;;;;;;;;;;;7.47;87.49;100463.33;105611;1295;75450;-80
2023/01/12 10:19:38;;;;;;;;;;;;;;;7.51;87.51;100455.58;105636;1294;68910;-79
2023/01/12 10:22:38;;;;;;;;;;;;;;;7.55;87.46;100451.27;105615;1294;73943;-79
2023/01/12 10:25:23;;;;;;;;;;;;;;;7.59;87.35;100448.84;105638;1295;58955;-80
2023/01/12 10:27:50;;;;;;;;;;;;;;;7.62;87.39;100443.67;105162;1306;59884;-79
2023/01/12 10:30:45;;;;;;;;;;;;;;;7.66;87.41;100436.27;104939;1300;75499;-77
2023/01/12 10:33:36;;;;;;;;;;;;;;;7.68;87.33;100430.60;105028;1302;68438;-79
2023/01/12 10:36:07;;;;;;;;;;;;;;;7.67;87.25;100426.48;104743;1305;72452;-80
2023/01/12 10:38:38;;;;;;;;;;;;;;;7.67;87.29;100422.89;104759;1308;59304;-80
2023/01/12 10:41:29;;;;;;;;;;;;;;;7.70;87.29;100421.84;104730;1308;59857;-80
2023/01/12 10:43:55;;;;;;;;;;;;;;;7.77;87.48;100422.46;104144;1314;74419;-78
2023/01/12 10:46:23;;;;;;;;;;;;;;;7.82;87.24;100415.55;104119;1313;59231;-80
2023/01/12 10:48:51;;;;;;;;;;;;;;;7.81;86.99;100410.91;104055;1324;73966;-80
2023/01/12 10:51:19;;;;;;;;;;;;;;;7.80;86.98;100413.15;104184;1311;59052;-79
2023/01/12 10:53:47;;;;;;;;;;;;;;;7.80;87.13;100411.63;104330;1308;59585;-80
2023/01/12 10:56:34;;;;;;;;;;;;;;;7.80;87.13;100405.96;104277;1308;75381;-80
2023/01/12 10:59:06;;;;;;;;;;;;;;;7.85;87.21;100403.33;103720;1317;69971;-80
2023/01/12 11:01:45;;;;;;;;;;;;;;;7.90;87.28;100397.63;103704;1318;71545;-80
2023/01/12 11:04:12;;;;;;;;;;;;;;;7.94;87.09;100395.35;103667;1314;59137;-80
2023/01/12 11:06:41;;;;;;;;;;;;;;;7.97;87.02;100391.55;104274;1309;60064;-80
2023/01/12 11:09:24;;;;;;;;;;;;;;;7.99;87.08;100387.76;104295;1311;74406;-80
2023/01/12 11:11:59;;;;;;;;;;;;;;;8.02;86.97;100387.05;104264;1309;68494;-80
2023/01/12 11:14:28;;;;;;;;;;;;;;;8.05;86.96;100382.05;104838;1303;72670;-80
2023/01/12 11:16:59;;;;;;;;;;;;;;;8.07;87.03;100378.94;104726;1305;59716;-80
2023/01/12 11:19:38;;;;;;;;;;;;;;;8.11;87.07;100373.06;104502;1302;60035;-80
2023/01/12 11:22:12;;;;;;;;;;;;;;;8.13;86.87;100368.58;105287;1302;75757;-81
2023/01/12 11:24:42;;;;;;;;;;;;;;;8.15;86.65;100362.55;105346;1297;68288;-80
2023/01/12 11:27:15;;;;;;;;;;;;;;;8.15;86.78;100364.79;105341;1296;71390;-80
2023/01/12 11:29:51;;;;;;;;;;;;;;;8.17;86.84;100360.12;105337;1296;59556;-79
2023/01/12 11:32:46;;;;;;;;;;;;;;;8.18;86.66;100358.39;105247;1298;59395;-78
2023/01/12 11:35:34;;;;;;;;;;;;;;;8.20;86.78;100354.25;104888;1305;74345;-77
2023/01/12 11:38:04;;;;;;;;;;;;;;;8.20;86.71;100346.70;104985;1302;67489;-80
2023/01/12 11:40:31;;;;;;;;;;;;;;;8.20;86.76;100341.02;104968;1305;73259;-79
2023/01/12 11:45:57;;;;;;;;;;;;;;;8.20;86.75;100334.84;104991;1302;59147;-80
2023/01/12 11:48:27;;;;;;;;;;;;;;;8.22;86.72;100332.08;104944;1303;74317;-78
2023/01/12 11:50:52;;;;;;;;;;;;;;;8.26;86.78;100326.02;104954;1302;69347;-78
2023/01/12 11:53:23;;;;;;;;;;;;;;;8.32;86.64;100321.66;104965;1303;73377;-79
2023/01/12 11:55:54;;;;;;;;;;;;;;;8.36;86.73;100316.83;104878;1302;59355;-78
2023/01/12 11:58:48;;;;;;;;;;;;;;;8.38;86.68;100313.53;104789;1303;59832;-78
2023/01/12 12:01:36;;;;;;;;;;;;;;;8.39;86.59;100309.91;104354;1308;74433;-79
2023/01/12 12:04:29;;;;;;;;;;;;;;;8.41;86.63;100307.99;103888;1312;68282;-78
2023/01/12 12:07:00;;;;;;;;;;;;;;;8.42;86.56;100300.59;103849;1312;73477;-79
2023/01/12 12:09:45;;;;;;;;;;;;;;;8.46;86.53;100298.16;103763;1317;59931;-79
2023/01/12 12:12:16;;;;;;;;;;;;;;;8.49;86.52;100292.27;103816;1313;60695;-79
2023/01/12 12:14:41;;;;;;;;;;;;;;;8.53;86.52;100285.34;103978;1311;75284;-79
2023/01/12 12:17:30;;;;;;;;;;;;;;;8.55;86.47;100284.28;103954;1311;59646;-78
2023/01/12 12:20:16;;;;;;;;;;;;;;;8.55;86.33;100283.27;103663;1314;72420;-78
2023/01/12 12:22:45;;;;;;;;;;;;;;;8.53;86.26;100277.27;103419;1323;60891;-78
2023/01/12 12:25:28;;;;;;;;;;;;;;;8.53;86.31;100268.50;103517;1320;60010;-78
2023/01/12 12:28:13;;;;;;;;;;;;;;;8.52;86.28;100261.83;103436;1321;74417;-79
2023/01/12 12:31:02;;;;;;;;;;;;;;;8.50;86.16;100258.75;103473;1323;69464;-78
2023/01/12 12:33:42;;;;;;;;;;;;;;;8.48;86.12;100252.60;102975;1329;73751;-79
2023/01/12 12:36:28;;;;;;;;;;;;;;;8.47;86.16;100251.58;102980;1329;59245;-78
2023/01/12 12:39:09;;;;;;;;;;;;;;;8.46;86.10;100248.67;102681;1328;60765;-79
2023/01/12 12:47:37;;;;;;;;;;;;;;;8.46;86.12;100251.77;102891;1325;72673;-79
2023/01/12 12:50:11;;;;;;;;;;;;;;;8.47;86.15;100247.64;103250;1318;59361;-79
2023/01/12 12:52:37;;;;;;;;;;;;;;;8.47;86.02;100243.16;103417;1317;58958;-79
2023/01/12 12:55:04;;;;;;;;;;;;;;;8.49;85.99;100242.80;103524;1317;60277;-80
2023/01/12 12:57:29;;;;;;;;;;;;;;;8.51;86.08;100239.33;103647;1318;59833;-79
2023/01/12 12:59:56;;;;;;;;;;;;;;;8.55;85.90;100239.80;103962;1311;59464;-79
2023/01/12 13:02:37;;;;;;;;;;;;;;;8.57;86.01;100237.88;104106;1309;59773;-78
2023/01/12 13:05:06;;;;;;;;;;;;;;;8.60;85.98;100235.94;100272;1311;5179653;-81
2023/01/12 13:07:34;;;;;;;;;;;;;;;8.63;85.96;100232.46;97003;1310;10011312;-81
2023/01/12 13:10:14;;;;;;;;;;;;;;;8.65;85.82;100231.58;104284;1309;59531;-81
2023/01/12 13:12:40;;;;;;;;;;;;;;;8.67;85.96;100233.11;104890;1303;61093;-81
2023/01/12 13:15:31;;;;;;;;;;;;;;;8.69;85.84;100230.15;105003;1302;59056;-80
2023/01/12 13:17:57;;;;;;;;;;;;;;;8.71;85.86;100224.27;104995;1302;68416;-81
2023/01/12 13:20:43;;;;;;;;;;;;;;;8.73;85.80;100226.99;104933;1302;59468;-80
2023/01/12 13:23:28;;;;;;;;;;;;;;;8.75;85.60;100220.27;104898;1302;58975;-82
2023/01/12 13:25:55;;;;;;;;;;;;;;;8.77;85.68;100214.91;105512;1294;60917;-80
2023/01/12 13:28:21;;;;;;;;;;;;;;;8.78;85.63;100210.27;105402;1296;59486;-80